createdAt,value
2018-10-15T00:04:43.581Z,95428.00
2018-10-15T00:10:13.876Z,95433.00
2018-10-15T00:15:43.882Z,95429.00
2018-10-15T00:21:13.256Z,95431.00
2018-10-15T00:26:43.529Z,95423.00
2018-10-15T00:32:13.782Z,95421.00
2018-10-15T00:37:43.523Z,95409.00
2018-10-15T00:43:12.833Z,95415.00
2018-10-15T00:48:42.084Z,95415.00
2018-10-15T00:54:11.437Z,95424.00
2018-10-15T00:59:40.737Z,95424.00
2018-10-15T01:05:10.812Z,95418.00
2018-10-15T01:10:41.242Z,95424.00
2018-10-15T01:16:11.927Z,95423.00
2018-10-15T01:21:41.199Z,95423.00
2018-10-15T01:27:10.526Z,95423.00
2018-10-15T01:32:40.875Z,95420.00
2018-10-15T01:38:10.167Z,95416.00
2018-10-15T01:43:39.501Z,95415.00
2018-10-15T01:49:08.719Z,95407.00
2018-10-15T01:54:38.133Z,95413.00
2018-10-15T02:00:09.060Z,95431.00
2018-10-15T02:05:38.512Z,95416.00
2018-10-15T02:11:07.800Z,95424.00
2018-10-15T02:16:37.304Z,95434.00
2018-10-15T02:22:06.772Z,95436.00
2018-10-15T02:27:36.056Z,95436.00
2018-10-15T02:33:05.747Z,95433.00
2018-10-15T02:38:35.021Z,95431.00
2018-10-15T02:44:04.344Z,95437.00
2018-10-15T02:49:33.604Z,95436.00
2018-10-15T02:55:03.936Z,95433.00
2018-10-15T03:00:33.251Z,95431.00
2018-10-15T03:06:02.692Z,95435.00
2018-10-15T03:11:31.951Z,95437.00
2018-10-15T03:17:01.306Z,95432.00
2018-10-15T03:22:30.718Z,95426.00
2018-10-15T03:28:00.045Z,95432.00
2018-10-15T03:33:29.511Z,95447.00
2018-10-15T03:38:58.828Z,95449.00
2018-10-15T03:44:28.056Z,95462.00
2018-10-15T03:49:57.566Z,95445.00
2018-10-15T03:55:26.962Z,95449.00
2018-10-15T04:00:56.272Z,95443.00
2018-10-15T04:06:25.580Z,95450.00
2018-10-15T04:11:54.862Z,95442.00
2018-10-15T04:17:25.217Z,95437.00
2018-10-15T04:22:56.783Z,95445.00
2018-10-15T04:28:26.213Z,95459.00
2018-10-15T04:33:55.750Z,95453.00
2018-10-15T04:39:25.136Z,95461.00
2018-10-15T04:44:54.331Z,95472.00
2018-10-15T04:50:25.114Z,95470.00
2018-10-15T04:55:54.474Z,95471.00
2018-10-15T05:01:24.040Z,95463.00
2018-10-15T05:06:55.486Z,95459.00
2018-10-15T05:12:24.814Z,95465.00
2018-10-15T05:17:54.112Z,95470.00
2018-10-15T05:23:23.357Z,95473.00
2018-10-15T05:28:53.031Z,95473.00
2018-10-15T05:34:22.237Z,95471.00
2018-10-15T05:39:51.752Z,95482.00
2018-10-15T05:45:21.058Z,95489.00
2018-10-15T05:50:50.306Z,95492.00
2018-10-15T05:56:19.605Z,95493.00
2018-10-15T06:01:48.976Z,95491.00
2018-10-15T06:07:18.201Z,95497.00
2018-10-15T06:12:49.003Z,95500.00
2018-10-15T06:18:18.292Z,95503.00
2018-10-15T06:23:47.533Z,95502.00
2018-10-15T06:29:16.841Z,95500.00
2018-10-15T06:34:46.182Z,95504.00
2018-10-15T06:40:15.399Z,95504.00
2018-10-15T06:45:44.652Z,95514.00
2018-10-15T06:51:13.951Z,95513.00
2018-10-15T06:56:43.156Z,95528.00
2018-10-15T07:02:12.547Z,95525.00
2018-10-15T07:07:41.880Z,95523.00
2018-10-15T07:13:11.234Z,95522.00
2018-10-15T07:18:40.520Z,95515.00
2018-10-15T07:24:09.969Z,95524.00
2018-10-15T07:29:39.216Z,95524.00
2018-10-15T07:35:08.884Z,95536.00
2018-10-15T07:40:38.341Z,95536.00
2018-10-15T07:46:08.143Z,95540.00
2018-10-15T07:51:37.338Z,95544.00
2018-10-15T07:57:06.989Z,95553.00
2018-10-15T08:02:36.244Z,95553.00
2018-10-15T08:08:05.716Z,95553.00
2018-10-15T08:13:35.014Z,95545.00
2018-10-15T08:19:04.332Z,95545.00
2018-10-15T08:24:35.694Z,95550.00
2018-10-15T08:30:05.896Z,95559.00
2018-10-15T08:35:35.409Z,95554.00
2018-10-15T08:41:04.864Z,95552.00
2018-10-15T08:46:34.176Z,95550.00
2018-10-15T08:52:03.516Z,95537.00
2018-10-15T08:57:32.794Z,95542.00
2018-10-15T09:03:02.106Z,95542.00
2018-10-15T09:08:31.367Z,95535.00
2018-10-15T09:14:02.711Z,95539.00
2018-10-15T09:19:31.988Z,95541.00
2018-10-15T09:25:01.387Z,95537.00
2018-10-15T09:30:30.563Z,95540.00
2018-10-15T09:35:59.963Z,95535.00
2018-10-15T09:41:29.444Z,95537.00
2018-10-15T09:46:58.633Z,95542.00
2018-10-15T09:52:28.948Z,95536.00
2018-10-15T09:57:58.266Z,95540.00
2018-10-15T10:03:27.553Z,95542.00
2018-10-15T10:08:56.911Z,95537.00
2018-10-15T10:14:26.657Z,95533.00
2018-10-15T10:19:55.861Z,95530.00
2018-10-15T10:25:25.288Z,95516.00
2018-10-15T10:30:55.775Z,95519.00
2018-10-15T10:36:24.988Z,95513.00
2018-10-15T10:41:54.334Z,95509.00
2018-10-15T10:47:23.595Z,95507.00
2018-10-15T10:52:52.882Z,95500.00
2018-10-15T10:58:22.131Z,95499.00
2018-10-15T11:03:51.487Z,95500.00
2018-10-15T11:09:20.765Z,95500.00
2018-10-15T11:14:50.165Z,95500.00
2018-10-15T11:20:19.522Z,95504.00
2018-10-15T11:25:48.892Z,95492.00
2018-10-15T11:31:18.326Z,95499.00
2018-10-15T11:36:47.912Z,95489.00
2018-10-15T11:42:17.422Z,95489.00
2018-10-15T11:47:46.882Z,95485.00
2018-10-15T11:53:16.455Z,95484.00
2018-10-15T11:58:45.884Z,95477.00
2018-10-15T12:04:15.233Z,95479.00
2018-10-15T12:09:44.550Z,95469.00
2018-10-15T12:15:14.840Z,95473.00
2018-10-15T12:20:44.106Z,95469.00
2018-10-15T12:26:13.493Z,95473.00
2018-10-15T12:31:42.864Z,95461.00
2018-10-15T12:37:12.124Z,95459.00
2018-10-15T12:42:41.629Z,95448.00
2018-10-15T12:48:10.848Z,95450.00
2018-10-15T12:53:40.143Z,95441.00
2018-10-15T12:59:09.457Z,95445.00
2018-10-15T13:04:39.274Z,95459.00
2018-10-15T13:10:09.896Z,95459.00
2018-10-15T13:15:39.160Z,95448.00
2018-10-15T13:21:08.456Z,95453.00
2018-10-15T13:26:37.852Z,95454.00
2018-10-15T13:32:07.189Z,95448.00
2018-10-15T13:37:36.447Z,95444.00
2018-10-15T13:43:06.799Z,95440.00
2018-10-15T13:48:36.436Z,95439.00
2018-10-15T13:54:06.991Z,95439.00
2018-10-15T13:59:36.548Z,95435.00
2018-10-15T14:05:06.352Z,95427.00
2018-10-15T14:10:35.605Z,95387.00
2018-10-15T14:16:05.604Z,95405.00
2018-10-15T14:21:35.267Z,95429.00
2018-10-15T14:27:10.834Z,95433.00
2018-10-15T14:32:40.260Z,95449.00
2018-10-15T14:38:09.521Z,95440.00
2018-10-15T14:43:39.840Z,95450.00
2018-10-15T14:49:10.213Z,95439.00
2018-10-15T14:54:39.506Z,95433.00
2018-10-15T15:00:11.291Z,95428.00
2018-10-15T15:05:40.616Z,95447.00
2018-10-15T15:11:26.678Z,95446.00
2018-10-15T15:16:56.026Z,95447.00
2018-10-15T15:22:25.318Z,95453.00
2018-10-15T15:27:54.776Z,95450.00
2018-10-15T15:33:24.260Z,95462.00
2018-10-15T15:38:54.165Z,95454.00
2018-10-15T15:44:23.567Z,95461.00
2018-10-15T15:49:53.105Z,95464.00
2018-10-15T15:55:23.656Z,95468.00
2018-10-15T16:00:52.942Z,95461.00
2018-10-15T16:06:22.948Z,95469.00
2018-10-15T16:11:52.876Z,95473.00
2018-10-15T16:17:22.145Z,95481.00
2018-10-15T16:22:52.653Z,95481.00
2018-10-15T16:28:21.902Z,95490.00
2018-10-15T16:33:51.189Z,95488.00
2018-10-15T16:39:20.626Z,95501.00
2018-10-15T16:44:51.420Z,95503.00
2018-10-15T16:50:20.947Z,95508.00
2018-10-15T16:55:50.301Z,95512.00
2018-10-15T17:01:19.596Z,95515.00
2018-10-15T17:06:49.258Z,95524.00
2018-10-15T17:12:18.773Z,95521.00
2018-10-15T17:17:48.264Z,95539.00
2018-10-15T17:23:17.888Z,95531.00
2018-10-15T17:28:47.180Z,95533.00
2018-10-15T17:34:16.573Z,95530.00
2018-10-15T17:39:46.918Z,95540.00
2018-10-15T17:45:17.564Z,95541.00
2018-10-15T17:50:47.173Z,95548.00
2018-10-15T17:56:16.998Z,95545.00
2018-10-15T18:01:46.408Z,95549.00
2018-10-15T18:07:15.809Z,95546.00
2018-10-15T18:12:45.215Z,95550.00
2018-10-15T18:18:15.528Z,95561.00
2018-10-15T18:23:44.919Z,95555.00
2018-10-15T18:29:14.172Z,95560.00
2018-10-15T18:34:43.483Z,95553.00
2018-10-15T18:40:12.835Z,95558.00
2018-10-15T18:45:42.213Z,95564.00
2018-10-15T18:51:12.458Z,95564.00
2018-10-15T18:56:41.790Z,95556.00
2018-10-15T19:02:12.163Z,95555.00
2018-10-15T19:07:41.516Z,95555.00
2018-10-15T19:13:10.981Z,95552.00
2018-10-15T19:18:40.311Z,95552.00
2018-10-15T19:24:09.560Z,95554.00
2018-10-15T19:29:38.881Z,95544.00
2018-10-15T19:35:08.766Z,95555.00
2018-10-15T19:40:38.106Z,95552.00
2018-10-15T19:46:08.781Z,95561.00
2018-10-15T19:51:38.298Z,95556.00
2018-10-15T19:57:07.672Z,95564.00
2018-10-15T20:02:37.064Z,95566.00
2018-10-15T20:08:07.030Z,95574.00
2018-10-15T20:13:36.848Z,95573.00
2018-10-15T20:19:06.428Z,95576.00
2018-10-15T20:24:35.852Z,95586.00
2018-10-15T20:30:05.913Z,95581.00
2018-10-15T20:35:35.271Z,95589.00
2018-10-15T20:41:04.802Z,95585.00
2018-10-15T20:46:34.175Z,95592.00
2018-10-15T20:52:03.554Z,95595.00
2018-10-15T20:57:32.905Z,95599.00
2018-10-15T21:03:02.259Z,95595.00
2018-10-15T21:08:32.584Z,95603.00
2018-10-15T21:14:03.768Z,95605.00
2018-10-15T21:19:33.095Z,95607.00
2018-10-15T21:25:02.391Z,95605.00
2018-10-15T21:30:31.631Z,95607.00
2018-10-15T21:36:00.944Z,95603.00
2018-10-15T21:41:30.966Z,95603.00
2018-10-15T21:47:00.306Z,95605.00
2018-10-15T21:52:29.837Z,95607.00
2018-10-15T21:57:59.120Z,95611.00
2018-10-15T22:03:28.513Z,95602.00
2018-10-15T22:08:57.881Z,95609.00
2018-10-15T22:14:27.139Z,95603.00
2018-10-15T22:19:56.521Z,95610.00
2018-10-15T22:25:25.800Z,95607.00
2018-10-15T22:30:55.113Z,95608.00
2018-10-15T22:36:24.436Z,95613.00
2018-10-15T22:41:53.737Z,95610.00
2018-10-15T22:47:22.998Z,95610.00
2018-10-15T22:52:52.389Z,95612.00
2018-10-15T22:58:21.660Z,95618.00
2018-10-15T23:03:51.181Z,95618.00
2018-10-15T23:09:26.607Z,95620.00
2018-10-15T23:14:55.820Z,95622.00
2018-10-15T23:20:25.059Z,95619.00
2018-10-15T23:25:54.285Z,95630.00
2018-10-15T23:31:23.581Z,95631.00
2018-10-15T23:36:52.931Z,95633.00
2018-10-15T23:42:22.180Z,95633.00
2018-10-15T23:47:51.432Z,95649.00
2018-10-15T23:53:20.804Z,95647.00
2018-10-15T23:58:50.104Z,95648.00
